sensor_id;sensor_type;location;lat;lon;timestamp;P1;durP1;ratioP1;P2;durP2;ratioP2
41077;SDS011;26823;42.662;23.352;2023-07-13T00:01:52;9.57;;;4.00;;
41077;SDS011;26823;42.662;23.352;2023-07-13T00:04:18;9.95;;;4.20;;
41077;SDS011;26823;42.662;23.352;2023-07-13T00:06:45;5.78;;;4.65;;
41077;SDS011;26823;42.662;23.352;2023-07-13T00:09:12;10.15;;;4.70;;
41077;SDS011;26823;42.662;23.352;2023-07-13T00:11:38;8.13;;;4.13;;
41077;SDS011;26823;42.662;23.352;2023-07-13T00:14:04;7.22;;;4.45;;
41077;SDS011;26823;42.662;23.352;2023-07-13T00:16:30;7.82;;;4.80;;
41077;SDS011;26823;42.662;23.352;2023-07-13T00:18:55;6.80;;;4.53;;
41077;SDS011;26823;42.662;23.352;2023-07-13T00:21:21;9.25;;;4.30;;
41077;SDS011;26823;42.662;23.352;2023-07-13T00:23:46;6.90;;;4.30;;
41077;SDS011;26823;42.662;23.352;2023-07-13T00:26:12;9.27;;;4.80;;
41077;SDS011;26823;42.662;23.352;2023-07-13T00:28:38;7.05;;;4.32;;
41077;SDS011;26823;42.662;23.352;2023-07-13T00:31:04;8.10;;;4.40;;
41077;SDS011;26823;42.662;23.352;2023-07-13T00:33:30;7.18;;;4.72;;
41077;SDS011;26823;42.662;23.352;2023-07-13T00:35:56;9.27;;;5.00;;
41077;SDS011;26823;42.662;23.352;2023-07-13T00:38:22;8.63;;;4.68;;
41077;SDS011;26823;42.662;23.352;2023-07-13T00:40:48;7.13;;;4.20;;
41077;SDS011;26823;42.662;23.352;2023-07-13T00:43:18;7.38;;;4.80;;
41077;SDS011;26823;42.662;23.352;2023-07-13T00:48:12;5.95;;;4.60;;
41077;SDS011;26823;42.662;23.352;2023-07-13T00:50:42;8.63;;;4.35;;
41077;SDS011;26823;42.662;23.352;2023-07-13T00:53:09;7.55;;;4.05;;
41077;SDS011;26823;42.662;23.352;2023-07-13T00:55:36;5.68;;;4.10;;
41077;SDS011;26823;42.662;23.352;2023-07-13T00:58:03;5.97;;;4.40;;
41077;SDS011;26823;42.662;23.352;2023-07-13T01:00:31;7.93;;;4.80;;
41077;SDS011;26823;42.662;23.352;2023-07-13T01:02:59;9.57;;;4.57;;
41077;SDS011;26823;42.662;23.352;2023-07-13T01:05:29;7.88;;;3.92;;
41077;SDS011;26823;42.662;23.352;2023-07-13T01:07:56;5.70;;;4.53;;
41077;SDS011;26823;42.662;23.352;2023-07-13T01:10:23;9.85;;;4.95;;
41077;SDS011;26823;42.662;23.352;2023-07-13T01:12:49;5.90;;;4.45;;
41077;SDS011;26823;42.662;23.352;2023-07-13T01:18:07;7.95;;;4.38;;
41077;SDS011;26823;42.662;23.352;2023-07-13T01:20:35;6.90;;;4.45;;
41077;SDS011;26823;42.662;23.352;2023-07-13T01:23:08;6.80;;;3.92;;
41077;SDS011;26823;42.662;23.352;2023-07-13T01:25:35;5.60;;;4.68;;
41077;SDS011;26823;42.662;23.352;2023-07-13T01:28:05;6.95;;;4.68;;
41077;SDS011;26823;42.662;23.352;2023-07-13T01:30:33;10.00;;;5.43;;
41077;SDS011;26823;42.662;23.352;2023-07-13T01:32:59;5.35;;;4.40;;
41077;SDS011;26823;42.662;23.352;2023-07-13T01:35:25;7.57;;;4.75;;
41077;SDS011;26823;42.662;23.352;2023-07-13T01:37:52;9.40;;;5.00;;
41077;SDS011;26823;42.662;23.352;2023-07-13T01:40:17;8.20;;;4.95;;
41077;SDS011;26823;42.662;23.352;2023-07-13T01:42:43;6.35;;;5.00;;
41077;SDS011;26823;42.662;23.352;2023-07-13T01:45:08;5.78;;;4.68;;
41077;SDS011;26823;42.662;23.352;2023-07-13T01:47:34;7.63;;;4.25;;
41077;SDS011;26823;42.662;23.352;2023-07-13T01:49:59;10.35;;;5.20;;
41077;SDS011;26823;42.662;23.352;2023-07-13T01:52:25;7.65;;;4.35;;
41077;SDS011;26823;42.662;23.352;2023-07-13T01:54:50;11.30;;;4.97;;
41077;SDS011;26823;42.662;23.352;2023-07-13T01:57:15;5.95;;;4.95;;
41077;SDS011;26823;42.662;23.352;2023-07-13T01:59:41;5.40;;;4.65;;
41077;SDS011;26823;42.662;23.352;2023-07-13T02:02:07;9.30;;;4.28;;
41077;SDS011;26823;42.662;23.352;2023-07-13T02:04:33;10.27;;;4.78;;
41077;SDS011;26823;42.662;23.352;2023-07-13T02:06:58;5.68;;;4.63;;
41077;SDS011;26823;42.662;23.352;2023-07-13T02:09:23;7.60;;;4.63;;
41077;SDS011;26823;42.662;23.352;2023-07-13T02:11:49;6.30;;;4.45;;
41077;SDS011;26823;42.662;23.352;2023-07-13T02:14:14;7.82;;;4.80;;
41077;SDS011;26823;42.662;23.352;2023-07-13T02:16:40;6.10;;;4.38;;
41077;SDS011;26823;42.662;23.352;2023-07-13T02:19:07;5.85;;;4.75;;
41077;SDS011;26823;42.662;23.352;2023-07-13T02:21:32;8.30;;;4.68;;
41077;SDS011;26823;42.662;23.352;2023-07-13T02:23:58;6.45;;;4.57;;
41077;SDS011;26823;42.662;23.352;2023-07-13T02:26:24;6.10;;;4.78;;
41077;SDS011;26823;42.662;23.352;2023-07-13T02:28:50;7.00;;;4.68;;
41077;SDS011;26823;42.662;23.352;2023-07-13T02:31:16;6.45;;;4.97;;
41077;SDS011;26823;42.662;23.352;2023-07-13T02:33:41;7.55;;;5.60;;
41077;SDS011;26823;42.662;23.352;2023-07-13T02:36:07;10.45;;;5.40;;
41077;SDS011;26823;42.662;23.352;2023-07-13T02:38:33;5.97;;;5.07;;
41077;SDS011;26823;42.662;23.352;2023-07-13T02:41:00;6.50;;;5.03;;
41077;SDS011;26823;42.662;23.352;2023-07-13T02:43:26;8.20;;;4.90;;
41077;SDS011;26823;42.662;23.352;2023-07-13T02:45:52;7.35;;;5.15;;
41077;SDS011;26823;42.662;23.352;2023-07-13T02:48:17;6.57;;;4.75;;
41077;SDS011;26823;42.662;23.352;2023-07-13T02:50:43;6.93;;;5.00;;
41077;SDS011;26823;42.662;23.352;2023-07-13T02:53:09;7.88;;;4.93;;
41077;SDS011;26823;42.662;23.352;2023-07-13T02:55:35;7.57;;;4.72;;
41077;SDS011;26823;42.662;23.352;2023-07-13T02:58:00;7.07;;;4.95;;
41077;SDS011;26823;42.662;23.352;2023-07-13T03:00:26;7.35;;;4.60;;
41077;SDS011;26823;42.662;23.352;2023-07-13T03:02:58;6.13;;;4.80;;
41077;SDS011;26823;42.662;23.352;2023-07-13T03:05:23;5.75;;;4.75;;
41077;SDS011;26823;42.662;23.352;2023-07-13T03:07:49;8.10;;;4.70;;
41077;SDS011;26823;42.662;23.352;2023-07-13T03:10:14;8.10;;;4.68;;
41077;SDS011;26823;42.662;23.352;2023-07-13T03:12:41;6.05;;;4.80;;
41077;SDS011;26823;42.662;23.352;2023-07-13T03:15:06;7.57;;;4.93;;
41077;SDS011;26823;42.662;23.352;2023-07-13T03:17:32;9.40;;;5.00;;
41077;SDS011;26823;42.662;23.352;2023-07-13T03:19:57;6.65;;;5.07;;
41077;SDS011;26823;42.662;23.352;2023-07-13T03:22:23;7.50;;;5.40;;
41077;SDS011;26823;42.662;23.352;2023-07-13T03:24:48;7.18;;;5.68;;
41077;SDS011;26823;42.662;23.352;2023-07-13T03:27:14;11.25;;;5.82;;
41077;SDS011;26823;42.662;23.352;2023-07-13T03:29:40;7.88;;;6.03;;
41077;SDS011;26823;42.662;23.352;2023-07-13T03:32:06;7.72;;;5.57;;
41077;SDS011;26823;42.662;23.352;2023-07-13T03:34:32;6.07;;;5.47;;
41077;SDS011;26823;42.662;23.352;2023-07-13T03:36:57;8.57;;;6.32;;
41077;SDS011;26823;42.662;23.352;2023-07-13T03:39:23;7.78;;;5.10;;
41077;SDS011;26823;42.662;23.352;2023-07-13T03:41:48;12.23;;;5.28;;
41077;SDS011;26823;42.662;23.352;2023-07-13T03:44:15;9.60;;;5.20;;
41077;SDS011;26823;42.662;23.352;2023-07-13T03:46:42;7.18;;;5.32;;
41077;SDS011;26823;42.662;23.352;2023-07-13T03:49:07;7.72;;;5.22;;
41077;SDS011;26823;42.662;23.352;2023-07-13T03:51:34;12.88;;;6.00;;
41077;SDS011;26823;42.662;23.352;2023-07-13T03:54:00;10.48;;;6.90;;
41077;SDS011;26823;42.662;23.352;2023-07-13T03:56:27;9.55;;;6.32;;
41077;SDS011;26823;42.662;23.352;2023-07-13T03:58:53;8.35;;;6.00;;
41077;SDS011;26823;42.662;23.352;2023-07-13T04:01:20;8.02;;;6.32;;
41077;SDS011;26823;42.662;23.352;2023-07-13T04:03:47;7.85;;;6.40;;
41077;SDS011;26823;42.662;23.352;2023-07-13T04:06:17;10.85;;;5.85;;
41077;SDS011;26823;42.662;23.352;2023-07-13T04:08:45;7.85;;;5.65;;
41077;SDS011;26823;42.662;23.352;2023-07-13T04:11:12;13.95;;;6.03;;
41077;SDS011;26823;42.662;23.352;2023-07-13T04:13:37;10.70;;;6.45;;
41077;SDS011;26823;42.662;23.352;2023-07-13T04:16:02;7.55;;;6.10;;
41077;SDS011;26823;42.662;23.352;2023-07-13T04:18:28;12.25;;;6.88;;
41077;SDS011;26823;42.662;23.352;2023-07-13T04:20:53;10.55;;;6.40;;
41077;SDS011;26823;42.662;23.352;2023-07-13T04:23:19;9.27;;;6.45;;
41077;SDS011;26823;42.662;23.352;2023-07-13T04:25:52;10.25;;;6.40;;
41077;SDS011;26823;42.662;23.352;2023-07-13T04:28:18;8.50;;;6.80;;
41077;SDS011;26823;42.662;23.352;2023-07-13T04:30:45;10.68;;;6.50;;
41077;SDS011;26823;42.662;23.352;2023-07-13T04:33:10;7.32;;;6.30;;
41077;SDS011;26823;42.662;23.352;2023-07-13T04:35:36;11.23;;;6.60;;
41077;SDS011;26823;42.662;23.352;2023-07-13T04:38:02;9.43;;;7.03;;
41077;SDS011;26823;42.662;23.352;2023-07-13T04:40:28;14.93;;;7.70;;
41077;SDS011;26823;42.662;23.352;2023-07-13T04:42:54;18.77;;;7.32;;
41077;SDS011;26823;42.662;23.352;2023-07-13T04:45:19;8.20;;;6.60;;
41077;SDS011;26823;42.662;23.352;2023-07-13T04:47:45;9.82;;;6.75;;
41077;SDS011;26823;42.662;23.352;2023-07-13T04:50:12;9.13;;;7.43;;
41077;SDS011;26823;42.662;23.352;2023-07-13T04:52:40;9.27;;;7.63;;
41077;SDS011;26823;42.662;23.352;2023-07-13T04:55:06;9.77;;;7.93;;
41077;SDS011;26823;42.662;23.352;2023-07-13T04:57:31;9.98;;;7.78;;
41077;SDS011;26823;42.662;23.352;2023-07-13T05:00:00;10.65;;;7.63;;
41077;SDS011;26823;42.662;23.352;2023-07-13T05:02:31;10.52;;;7.60;;
41077;SDS011;26823;42.662;23.352;2023-07-13T05:04:57;11.73;;;8.00;;
41077;SDS011;26823;42.662;23.352;2023-07-13T05:07:23;15.40;;;7.28;;
41077;SDS011;26823;42.662;23.352;2023-07-13T05:09:50;11.77;;;8.40;;
41077;SDS011;26823;42.662;23.352;2023-07-13T05:12:15;9.85;;;7.55;;
41077;SDS011;26823;42.662;23.352;2023-07-13T05:14:41;10.73;;;7.55;;
41077;SDS011;26823;42.662;23.352;2023-07-13T05:17:06;14.05;;;7.57;;
41077;SDS011;26823;42.662;23.352;2023-07-13T05:19:31;12.63;;;7.30;;
41077;SDS011;26823;42.662;23.352;2023-07-13T05:21:57;12.07;;;8.07;;
41077;SDS011;26823;42.662;23.352;2023-07-13T05:24:22;10.43;;;7.25;;
41077;SDS011;26823;42.662;23.352;2023-07-13T05:26:49;10.32;;;7.85;;
41077;SDS011;26823;42.662;23.352;2023-07-13T05:29:14;13.00;;;7.53;;
41077;SDS011;26823;42.662;23.352;2023-07-13T05:31:39;8.77;;;7.88;;
41077;SDS011;26823;42.662;23.352;2023-07-13T05:34:05;12.05;;;8.02;;
41077;SDS011;26823;42.662;23.352;2023-07-13T05:36:30;15.82;;;8.10;;
41077;SDS011;26823;42.662;23.352;2023-07-13T05:38:56;13.48;;;8.23;;
41077;SDS011;26823;42.662;23.352;2023-07-13T05:41:21;16.13;;;8.00;;
41077;SDS011;26823;42.662;23.352;2023-07-13T05:43:46;10.48;;;7.35;;
41077;SDS011;26823;42.662;23.352;2023-07-13T05:46:12;13.27;;;8.18;;
41077;SDS011;26823;42.662;23.352;2023-07-13T05:48:37;10.63;;;7.38;;
41077;SDS011;26823;42.662;23.352;2023-07-13T05:51:03;15.82;;;8.10;;
41077;SDS011;26823;42.662;23.352;2023-07-13T05:53:28;13.52;;;7.85;;
41077;SDS011;26823;42.662;23.352;2023-07-13T05:55:54;12.95;;;8.70;;
41077;SDS011;26823;42.662;23.352;2023-07-13T05:58:20;10.48;;;8.00;;
41077;SDS011;26823;42.662;23.352;2023-07-13T06:00:48;11.23;;;7.95;;
41077;SDS011;26823;42.662;23.352;2023-07-13T06:03:14;15.98;;;7.82;;
41077;SDS011;26823;42.662;23.352;2023-07-13T06:05:41;12.63;;;8.00;;
41077;SDS011;26823;42.662;23.352;2023-07-13T06:08:06;11.65;;;7.93;;
41077;SDS011;26823;42.662;23.352;2023-07-13T06:10:33;11.15;;;7.75;;
41077;SDS011;26823;42.662;23.352;2023-07-13T06:12:59;9.93;;;7.30;;
41077;SDS011;26823;42.662;23.352;2023-07-13T06:15:25;10.45;;;8.65;;
41077;SDS011;26823;42.662;23.352;2023-07-13T06:17:50;12.43;;;7.32;;
41077;SDS011;26823;42.662;23.352;2023-07-13T06:20:15;10.20;;;7.40;;
41077;SDS011;26823;42.662;23.352;2023-07-13T06:22:41;11.00;;;7.30;;
41077;SDS011;26823;42.662;23.352;2023-07-13T06:25:06;10.23;;;7.53;;
41077;SDS011;26823;42.662;23.352;2023-07-13T06:27:32;10.40;;;7.40;;
41077;SDS011;26823;42.662;23.352;2023-07-13T06:29:57;7.97;;;7.15;;
41077;SDS011;26823;42.662;23.352;2023-07-13T06:32:23;7.50;;;6.35;;
41077;SDS011;26823;42.662;23.352;2023-07-13T06:34:48;7.53;;;6.35;;
41077;SDS011;26823;42.662;23.352;2023-07-13T06:37:14;9.05;;;7.25;;
41077;SDS011;26823;42.662;23.352;2023-07-13T06:39:39;12.25;;;7.15;;
41077;SDS011;26823;42.662;23.352;2023-07-13T06:42:05;13.38;;;7.90;;
41077;SDS011;26823;42.662;23.352;2023-07-13T06:44:30;11.48;;;7.47;;
41077;SDS011;26823;42.662;23.352;2023-07-13T06:46:56;11.80;;;7.22;;
41077;SDS011;26823;42.662;23.352;2023-07-13T06:49:21;10.95;;;8.05;;
41077;SDS011;26823;42.662;23.352;2023-07-13T06:51:46;8.75;;;6.47;;
41077;SDS011;26823;42.662;23.352;2023-07-13T06:54:13;11.70;;;7.03;;
41077;SDS011;26823;42.662;23.352;2023-07-13T06:56:38;10.05;;;7.40;;
41077;SDS011;26823;42.662;23.352;2023-07-13T06:59:04;14.27;;;7.95;;
41077;SDS011;26823;42.662;23.352;2023-07-13T07:01:29;7.88;;;6.35;;
41077;SDS011;26823;42.662;23.352;2023-07-13T07:03:55;7.30;;;6.50;;
41077;SDS011;26823;42.662;23.352;2023-07-13T07:06:21;12.63;;;8.23;;
41077;SDS011;26823;42.662;23.352;2023-07-13T07:08:48;14.63;;;6.75;;
41077;SDS011;26823;42.662;23.352;2023-07-13T07:11:16;7.97;;;7.18;;
41077;SDS011;26823;42.662;23.352;2023-07-13T07:13:44;9.35;;;6.53;;
41077;SDS011;26823;42.662;23.352;2023-07-13T07:16:10;10.50;;;7.22;;
41077;SDS011;26823;42.662;23.352;2023-07-13T07:18:35;9.45;;;6.53;;
41077;SDS011;26823;42.662;23.352;2023-07-13T07:21:01;7.50;;;6.05;;
41077;SDS011;26823;42.662;23.352;2023-07-13T07:23:27;12.68;;;6.55;;
41077;SDS011;26823;42.662;23.352;2023-07-13T07:25:53;7.90;;;6.57;;
41077;SDS011;26823;42.662;23.352;2023-07-13T07:28:18;9.00;;;6.60;;
41077;SDS011;26823;42.662;23.352;2023-07-13T07:30:44;8.43;;;6.97;;
41077;SDS011;26823;42.662;23.352;2023-07-13T07:33:10;9.30;;;6.43;;
41077;SDS011;26823;42.662;23.352;2023-07-13T07:35:36;12.38;;;7.88;;
41077;SDS011;26823;42.662;23.352;2023-07-13T07:38:01;7.47;;;6.68;;
41077;SDS011;26823;42.662;23.352;2023-07-13T07:40:27;9.27;;;7.13;;
41077;SDS011;26823;42.662;23.352;2023-07-13T07:42:53;11.55;;;7.20;;
41077;SDS011;26823;42.662;23.352;2023-07-13T07:45:18;14.55;;;7.20;;
41077;SDS011;26823;42.662;23.352;2023-07-13T07:47:44;11.88;;;7.93;;
41077;SDS011;26823;42.662;23.352;2023-07-13T07:50:09;10.30;;;7.35;;
41077;SDS011;26823;42.662;23.352;2023-07-13T07:52:35;11.85;;;7.80;;
41077;SDS011;26823;42.662;23.352;2023-07-13T07:55:00;15.02;;;8.02;;
41077;SDS011;26823;42.662;23.352;2023-07-13T07:57:26;9.05;;;7.40;;
41077;SDS011;26823;42.662;23.352;2023-07-13T07:59:51;10.38;;;6.75;;
41077;SDS011;26823;42.662;23.352;2023-07-13T08:02:16;13.20;;;7.47;;
41077;SDS011;26823;42.662;23.352;2023-07-13T08:04:42;11.45;;;7.32;;
41077;SDS011;26823;42.662;23.352;2023-07-13T08:07:08;22.10;;;8.38;;
41077;SDS011;26823;42.662;23.352;2023-07-13T08:09:34;16.05;;;7.15;;
41077;SDS011;26823;42.662;23.352;2023-07-13T08:11:59;11.30;;;7.78;;
41077;SDS011;26823;42.662;23.352;2023-07-13T08:14:25;12.75;;;7.57;;
41077;SDS011;26823;42.662;23.352;2023-07-13T08:16:50;13.68;;;7.57;;
41077;SDS011;26823;42.662;23.352;2023-07-13T08:19:16;12.13;;;7.50;;
41077;SDS011;26823;42.662;23.352;2023-07-13T08:21:41;10.40;;;7.25;;
41077;SDS011;26823;42.662;23.352;2023-07-13T08:24:08;11.00;;;7.40;;
41077;SDS011;26823;42.662;23.352;2023-07-13T08:26:34;11.43;;;7.63;;
41077;SDS011;26823;42.662;23.352;2023-07-13T08:28:59;9.80;;;7.03;;
41077;SDS011;26823;42.662;23.352;2023-07-13T08:31:25;18.35;;;7.80;;
41077;SDS011;26823;42.662;23.352;2023-07-13T08:33:50;13.52;;;7.18;;
41077;SDS011;26823;42.662;23.352;2023-07-13T08:36:15;12.98;;;9.60;;
41077;SDS011;26823;42.662;23.352;2023-07-13T08:38:41;13.18;;;7.18;;
41077;SDS011;26823;42.662;23.352;2023-07-13T08:41:24;11.48;;;7.45;;
41077;SDS011;26823;42.662;23.352;2023-07-13T08:43:51;10.32;;;7.35;;
41077;SDS011;26823;42.662;23.352;2023-07-13T08:46:25;12.43;;;7.93;;
41077;SDS011;26823;42.662;23.352;2023-07-13T08:48:59;13.35;;;7.00;;
41077;SDS011;26823;42.662;23.352;2023-07-13T08:54:18;14.93;;;7.57;;
41077;SDS011;26823;42.662;23.352;2023-07-13T08:57:00;7.45;;;6.45;;
41077;SDS011;26823;42.662;23.352;2023-07-13T08:59:30;10.93;;;8.18;;
41077;SDS011;26823;42.662;23.352;2023-07-13T09:10:28;11.15;;;7.15;;
41077;SDS011;26823;42.662;23.352;2023-07-13T09:17:56;10.88;;;7.53;;
41077;SDS011;26823;42.662;23.352;2023-07-13T09:20:30;10.18;;;7.38;;
41077;SDS011;26823;42.662;23.352;2023-07-13T09:22:59;10.00;;;7.50;;
41077;SDS011;26823;42.662;23.352;2023-07-13T09:25:31;12.65;;;7.25;;
41077;SDS011;26823;42.662;23.352;2023-07-13T09:33:25;13.85;;;7.53;;
41077;SDS011;26823;42.662;23.352;2023-07-13T09:35:54;11.68;;;7.32;;
41077;SDS011;26823;42.662;23.352;2023-07-13T09:38:21;9.13;;;7.50;;
41077;SDS011;26823;42.662;23.352;2023-07-13T09:41:14;9.98;;;8.38;;
41077;SDS011;26823;42.662;23.352;2023-07-13T09:46:36;10.68;;;7.78;;
41077;SDS011;26823;42.662;23.352;2023-07-13T09:49:02;9.77;;;7.68;;
41077;SDS011;26823;42.662;23.352;2023-07-13T09:51:28;12.00;;;7.68;;
41077;SDS011;26823;42.662;23.352;2023-07-13T09:53:54;8.90;;;8.00;;
41077;SDS011;26823;42.662;23.352;2023-07-13T09:56:23;10.48;;;7.07;;
41077;SDS011;26823;42.662;23.352;2023-07-13T09:58:52;10.77;;;7.80;;
41077;SDS011;26823;42.662;23.352;2023-07-13T10:01:31;11.10;;;7.63;;
41077;SDS011;26823;42.662;23.352;2023-07-13T10:04:02;17.48;;;7.53;;
41077;SDS011;26823;42.662;23.352;2023-07-13T10:06:44;13.95;;;7.75;;
41077;SDS011;26823;42.662;23.352;2023-07-13T10:09:13;9.55;;;7.13;;
41077;SDS011;26823;42.662;23.352;2023-07-13T10:11:40;12.65;;;7.65;;
41077;SDS011;26823;42.662;23.352;2023-07-13T10:14:13;15.38;;;7.22;;
41077;SDS011;26823;42.662;23.352;2023-07-13T10:21:58;10.25;;;7.20;;
41077;SDS011;26823;42.662;23.352;2023-07-13T10:24:26;14.43;;;8.23;;
41077;SDS011;26823;42.662;23.352;2023-07-13T10:33:50;10.13;;;6.28;;
41077;SDS011;26823;42.662;23.352;2023-07-13T10:40:00;12.18;;;8.07;;
41077;SDS011;26823;42.662;23.352;2023-07-13T10:42:49;10.73;;;6.75;;
41077;SDS011;26823;42.662;23.352;2023-07-13T10:45:21;13.38;;;6.80;;
41077;SDS011;26823;42.662;23.352;2023-07-13T10:51:41;7.93;;;5.00;;
41077;SDS011;26823;42.662;23.352;2023-07-13T10:54:40;12.13;;;4.97;;
41077;SDS011;26823;42.662;23.352;2023-07-13T10:57:17;8.25;;;4.65;;
41077;SDS011;26823;42.662;23.352;2023-07-13T11:03:00;6.57;;;4.20;;
41077;SDS011;26823;42.662;23.352;2023-07-13T11:05:31;8.93;;;4.40;;
41077;SDS011;26823;42.662;23.352;2023-07-13T11:11:48;6.20;;;4.38;;
41077;SDS011;26823;42.662;23.352;2023-07-13T11:19:53;14.25;;;4.47;;
41077;SDS011;26823;42.662;23.352;2023-07-13T11:22:23;7.95;;;3.97;;
41077;SDS011;26823;42.662;23.352;2023-07-13T11:34:31;6.20;;;4.30;;
41077;SDS011;26823;42.662;23.352;2023-07-13T11:39:53;9.50;;;4.65;;
41077;SDS011;26823;42.662;23.352;2023-07-13T11:42:42;8.43;;;4.22;;
41077;SDS011;26823;42.662;23.352;2023-07-13T11:45:30;9.65;;;4.57;;
41077;SDS011;26823;42.662;23.352;2023-07-13T11:51:34;9.70;;;4.30;;
41077;SDS011;26823;42.662;23.352;2023-07-13T11:54:15;7.55;;;4.45;;
41077;SDS011;26823;42.662;23.352;2023-07-13T12:00:14;7.80;;;4.10;;
41077;SDS011;26823;42.662;23.352;2023-07-13T12:02:44;9.60;;;4.80;;
41077;SDS011;26823;42.662;23.352;2023-07-13T12:05:14;5.75;;;4.10;;
41077;SDS011;26823;42.662;23.352;2023-07-13T12:07:51;7.93;;;4.65;;
41077;SDS011;26823;42.662;23.352;2023-07-13T12:11:17;7.32;;;4.13;;
41077;SDS011;26823;42.662;23.352;2023-07-13T12:13:46;5.65;;;4.28;;
41077;SDS011;26823;42.662;23.352;2023-07-13T12:16:18;8.05;;;4.63;;
41077;SDS011;26823;42.662;23.352;2023-07-13T12:19:34;7.00;;;4.35;;
41077;SDS011;26823;42.662;23.352;2023-07-13T12:22:28;6.55;;;4.10;;
41077;SDS011;26823;42.662;23.352;2023-07-13T12:28:37;10.50;;;4.43;;
41077;SDS011;26823;42.662;23.352;2023-07-13T12:31:06;7.30;;;4.18;;
41077;SDS011;26823;42.662;23.352;2023-07-13T12:33:40;10.82;;;4.63;;
41077;SDS011;26823;42.662;23.352;2023-07-13T12:36:06;9.73;;;4.32;;
41077;SDS011;26823;42.662;23.352;2023-07-13T12:38:31;7.70;;;4.57;;
41077;SDS011;26823;42.662;23.352;2023-07-13T12:40:57;8.00;;;4.07;;
41077;SDS011;26823;42.662;23.352;2023-07-13T12:43:24;8.55;;;4.40;;
41077;SDS011;26823;42.662;23.352;2023-07-13T12:45:59;9.48;;;4.50;;
41077;SDS011;26823;42.662;23.352;2023-07-13T12:48:28;8.77;;;5.13;;
41077;SDS011;26823;42.662;23.352;2023-07-13T12:50:54;7.63;;;4.75;;
41077;SDS011;26823;42.662;23.352;2023-07-13T12:53:27;8.00;;;5.50;;
41077;SDS011;26823;42.662;23.352;2023-07-13T12:55:59;7.30;;;5.03;;
41077;SDS011;26823;42.662;23.352;2023-07-13T12:58:28;9.30;;;5.07;;
41077;SDS011;26823;42.662;23.352;2023-07-13T13:00:58;13.82;;;6.00;;
41077;SDS011;26823;42.662;23.352;2023-07-13T13:08:32;9.32;;;5.50;;
41077;SDS011;26823;42.662;23.352;2023-07-13T13:11:00;12.70;;;5.43;;
41077;SDS011;26823;42.662;23.352;2023-07-13T13:13:26;10.63;;;5.90;;
41077;SDS011;26823;42.662;23.352;2023-07-13T13:15:52;10.70;;;5.47;;
41077;SDS011;26823;42.662;23.352;2023-07-13T13:18:19;11.50;;;6.10;;
41077;SDS011;26823;42.662;23.352;2023-07-13T13:20:47;13.40;;;6.13;;
41077;SDS011;26823;42.662;23.352;2023-07-13T13:23:14;8.27;;;5.38;;
41077;SDS011;26823;42.662;23.352;2023-07-13T13:25:45;6.22;;;4.68;;
41077;SDS011;26823;42.662;23.352;2023-07-13T13:28:15;11.75;;;5.80;;
41077;SDS011;26823;42.662;23.352;2023-07-13T13:30:43;9.18;;;5.63;;
41077;SDS011;26823;42.662;23.352;2023-07-13T13:33:13;8.98;;;5.75;;
41077;SDS011;26823;42.662;23.352;2023-07-13T13:35:41;11.43;;;5.22;;
41077;SDS011;26823;42.662;23.352;2023-07-13T13:38:13;11.60;;;5.38;;
41077;SDS011;26823;42.662;23.352;2023-07-13T13:40:41;13.37;;;5.97;;
41077;SDS011;26823;42.662;23.352;2023-07-13T13:43:17;7.35;;;5.28;;
41077;SDS011;26823;42.662;23.352;2023-07-13T13:45:44;11.40;;;5.75;;
41077;SDS011;26823;42.662;23.352;2023-07-13T13:48:18;7.38;;;5.10;;
41077;SDS011;26823;42.662;23.352;2023-07-13T13:50:46;10.65;;;5.18;;
41077;SDS011;26823;42.662;23.352;2023-07-13T13:53:13;9.63;;;5.28;;
41077;SDS011;26823;42.662;23.352;2023-07-13T13:55:39;7.07;;;5.38;;
41077;SDS011;26823;42.662;23.352;2023-07-13T13:58:07;13.23;;;5.75;;
41077;SDS011;26823;42.662;23.352;2023-07-13T14:00:33;8.70;;;4.82;;
41077;SDS011;26823;42.662;23.352;2023-07-13T14:02:58;8.73;;;4.97;;
41077;SDS011;26823;42.662;23.352;2023-07-13T14:05:25;11.90;;;4.85;;
41077;SDS011;26823;42.662;23.352;2023-07-13T14:07:57;6.35;;;4.78;;
41077;SDS011;26823;42.662;23.352;2023-07-13T14:10:22;14.50;;;5.45;;
41077;SDS011;26823;42.662;23.352;2023-07-13T14:12:50;9.95;;;5.03;;
41077;SDS011;26823;42.662;23.352;2023-07-13T14:15:22;11.30;;;5.40;;
41077;SDS011;26823;42.662;23.352;2023-07-13T14:17:50;10.75;;;4.78;;
41077;SDS011;26823;42.662;23.352;2023-07-13T14:20:17;5.32;;;4.72;;
41077;SDS011;26823;42.662;23.352;2023-07-13T14:22:48;12.05;;;6.38;;
41077;SDS011;26823;42.662;23.352;2023-07-13T14:25:15;7.00;;;5.22;;
41077;SDS011;26823;42.662;23.352;2023-07-13T14:27:42;12.38;;;5.25;;
41077;SDS011;26823;42.662;23.352;2023-07-13T14:30:12;9.10;;;4.40;;
41077;SDS011;26823;42.662;23.352;2023-07-13T14:32:38;9.50;;;4.65;;
41077;SDS011;26823;42.662;23.352;2023-07-13T14:35:03;11.05;;;4.47;;
41077;SDS011;26823;42.662;23.352;2023-07-13T14:37:29;9.43;;;4.68;;
41077;SDS011;26823;42.662;23.352;2023-07-13T14:39:55;8.93;;;4.68;;
41077;SDS011;26823;42.662;23.352;2023-07-13T14:42:20;9.43;;;4.45;;
41077;SDS011;26823;42.662;23.352;2023-07-13T14:44:46;10.20;;;4.20;;
41077;SDS011;26823;42.662;23.352;2023-07-13T14:47:11;8.98;;;5.07;;
41077;SDS011;26823;42.662;23.352;2023-07-13T14:49:37;14.02;;;4.55;;
41077;SDS011;26823;42.662;23.352;2023-07-13T14:54:36;15.50;;;5.38;;
41077;SDS011;26823;42.662;23.352;2023-07-13T14:57:08;12.90;;;4.95;;
41077;SDS011;26823;42.662;23.352;2023-07-13T14:59:44;5.90;;;4.40;;
41077;SDS011;26823;42.662;23.352;2023-07-13T15:02:18;12.95;;;5.43;;
41077;SDS011;26823;42.662;23.352;2023-07-13T15:04:54;9.32;;;4.70;;
41077;SDS011;26823;42.662;23.352;2023-07-13T15:07:20;8.60;;;4.53;;
41077;SDS011;26823;42.662;23.352;2023-07-13T15:09:46;8.15;;;4.68;;
41077;SDS011;26823;42.662;23.352;2023-07-13T15:12:12;9.35;;;4.22;;
41077;SDS011;26823;42.662;23.352;2023-07-13T15:14:38;6.05;;;4.10;;
41077;SDS011;26823;42.662;23.352;2023-07-13T15:17:04;8.35;;;4.15;;
41077;SDS011;26823;42.662;23.352;2023-07-13T15:19:36;7.15;;;4.47;;
41077;SDS011;26823;42.662;23.352;2023-07-13T15:22:01;9.55;;;5.30;;
41077;SDS011;26823;42.662;23.352;2023-07-13T15:24:28;9.40;;;4.30;;
41077;SDS011;26823;42.662;23.352;2023-07-13T15:26:54;8.15;;;3.78;;
41077;SDS011;26823;42.662;23.352;2023-07-13T15:29:19;11.43;;;5.15;;
41077;SDS011;26823;42.662;23.352;2023-07-13T15:31:45;11.10;;;4.20;;
41077;SDS011;26823;42.662;23.352;2023-07-13T15:34:11;8.82;;;4.05;;
41077;SDS011;26823;42.662;23.352;2023-07-13T15:36:39;7.40;;;4.78;;
41077;SDS011;26823;42.662;23.352;2023-07-13T15:39:05;7.60;;;4.10;;
41077;SDS011;26823;42.662;23.352;2023-07-13T15:41:31;12.05;;;4.55;;
41077;SDS011;26823;42.662;23.352;2023-07-13T15:43:58;8.02;;;4.47;;
41077;SDS011;26823;42.662;23.352;2023-07-13T15:46:24;12.55;;;5.10;;
41077;SDS011;26823;42.662;23.352;2023-07-13T15:48:52;11.55;;;4.20;;
41077;SDS011;26823;42.662;23.352;2023-07-13T15:51:26;9.50;;;4.60;;
41077;SDS011;26823;42.662;23.352;2023-07-13T15:53:53;9.25;;;4.28;;
41077;SDS011;26823;42.662;23.352;2023-07-13T15:56:27;11.48;;;4.45;;
41077;SDS011;26823;42.662;23.352;2023-07-13T15:58:54;11.88;;;4.15;;
41077;SDS011;26823;42.662;23.352;2023-07-13T16:01:21;9.35;;;4.40;;
41077;SDS011;26823;42.662;23.352;2023-07-13T16:03:47;16.70;;;4.40;;
41077;SDS011;26823;42.662;23.352;2023-07-13T16:06:15;7.95;;;4.32;;